sensor_id;sensor_type;location;lat;lon;timestamp;pressure;altitude;pressure_sealevel;temperature;humidity
62436;BME280;48480;50.252;18.848;2023-03-25T00:01:17;97623.86;;;12.94;73.14
62436;BME280;48480;50.252;18.848;2023-03-25T00:03:43;97621.25;;;12.91;73.22
62436;BME280;48480;50.252;18.848;2023-03-25T00:06:14;97616.32;;;12.87;73.34
62436;BME280;48480;50.252;18.848;2023-03-25T00:08:40;97612.58;;;12.85;73.39
62436;BME280;48480;50.252;18.848;2023-03-25T00:11:06;97619.19;;;12.81;73.35
62436;BME280;48480;50.252;18.848;2023-03-25T00:13:32;97619.92;;;12.80;73.46
62436;BME280;48480;50.252;18.848;2023-03-25T00:15:58;97618.26;;;12.77;73.67
62436;BME280;48480;50.252;18.848;2023-03-25T00:18:26;97621.04;;;12.75;73.78
62436;BME280;48480;50.252;18.848;2023-03-25T00:20:54;97621.74;;;12.72;73.96
62436;BME280;48480;50.252;18.848;2023-03-25T00:23:21;97619.51;;;12.68;74.04
62436;BME280;48480;50.252;18.848;2023-03-25T00:25:47;97619.95;;;12.67;74.19
62436;BME280;48480;50.252;18.848;2023-03-25T00:28:14;97623.98;;;12.66;74.29
62436;BME280;48480;50.252;18.848;2023-03-25T00:30:42;97624.75;;;12.65;74.40
62436;BME280;48480;50.252;18.848;2023-03-25T00:33:08;97622.54;;;12.63;74.46
62436;BME280;48480;50.252;18.848;2023-03-25T00:35:38;97620.13;;;12.62;74.52
62436;BME280;48480;50.252;18.848;2023-03-25T00:38:12;97618.20;;;12.61;74.66
62436;BME280;48480;50.252;18.848;2023-03-25T00:40:38;97611.20;;;12.61;74.72
62436;BME280;48480;50.252;18.848;2023-03-25T00:43:04;97606.36;;;12.61;74.67
62436;BME280;48480;50.252;18.848;2023-03-25T00:45:30;97606.84;;;12.62;74.70
62436;BME280;48480;50.252;18.848;2023-03-25T00:47:56;97613.38;;;12.62;74.70
62436;BME280;48480;50.252;18.848;2023-03-25T00:50:22;97619.55;;;12.60;74.95
62436;BME280;48480;50.252;18.848;2023-03-25T00:52:49;97625.04;;;12.58;75.12
62436;BME280;48480;50.252;18.848;2023-03-25T00:55:15;97625.59;;;12.59;75.12
62436;BME280;48480;50.252;18.848;2023-03-25T00:57:41;97621.17;;;12.60;75.09
62436;BME280;48480;50.252;18.848;2023-03-25T01:00:10;97620.42;;;12.58;75.21
62436;BME280;48480;50.252;18.848;2023-03-25T01:02:37;97622.58;;;12.52;75.28
62436;BME280;48480;50.252;18.848;2023-03-25T01:05:06;97627.05;;;12.49;75.38
62436;BME280;48480;50.252;18.848;2023-03-25T01:07:33;97629.80;;;12.48;75.39
62436;BME280;48480;50.252;18.848;2023-03-25T01:10:00;97630.06;;;12.46;75.36
62436;BME280;48480;50.252;18.848;2023-03-25T01:12:26;97630.46;;;12.47;75.43
62436;BME280;48480;50.252;18.848;2023-03-25T01:14:52;97631.43;;;12.49;75.39
62436;BME280;48480;50.252;18.848;2023-03-25T01:17:19;97626.66;;;12.52;75.28
62436;BME280;48480;50.252;18.848;2023-03-25T01:19:44;97624.91;;;12.53;75.03
62436;BME280;48480;50.252;18.848;2023-03-25T01:22:10;97627.48;;;12.54;75.00
62436;BME280;48480;50.252;18.848;2023-03-25T01:24:36;97631.75;;;12.56;74.70
62436;BME280;48480;50.252;18.848;2023-03-25T01:27:02;97628.98;;;12.56;74.08
62436;BME280;48480;50.252;18.848;2023-03-25T01:29:27;97628.15;;;12.56;73.92
62436;BME280;48480;50.252;18.848;2023-03-25T01:31:53;97629.11;;;12.58;73.72
62436;BME280;48480;50.252;18.848;2023-03-25T01:34:18;97628.98;;;12.59;73.24
62436;BME280;48480;50.252;18.848;2023-03-25T01:36:44;97630.14;;;12.59;72.77
62436;BME280;48480;50.252;18.848;2023-03-25T01:39:12;97636.25;;;12.58;71.68
62436;BME280;48480;50.252;18.848;2023-03-25T01:41:41;97636.34;;;12.55;71.07
62436;BME280;48480;50.252;18.848;2023-03-25T01:46:54;97621.54;;;12.50;70.01
62436;BME280;48480;50.252;18.848;2023-03-25T01:49:22;97619.85;;;12.46;69.27
62436;BME280;48480;50.252;18.848;2023-03-25T01:51:52;97606.19;;;12.41;69.18
62436;BME280;48480;50.252;18.848;2023-03-25T01:54:18;97602.35;;;12.35;69.09
62436;BME280;48480;50.252;18.848;2023-03-25T01:56:46;97596.66;;;12.28;68.98
62436;BME280;48480;50.252;18.848;2023-03-25T01:59:14;97597.73;;;12.22;69.09
62436;BME280;48480;50.252;18.848;2023-03-25T02:01:42;97598.34;;;12.15;68.83
62436;BME280;48480;50.252;18.848;2023-03-25T02:04:10;97607.61;;;12.11;68.95
62436;BME280;48480;50.252;18.848;2023-03-25T02:06:44;97611.23;;;12.08;68.95
62436;BME280;48480;50.252;18.848;2023-03-25T02:09:13;97611.36;;;12.04;68.53
62436;BME280;48480;50.252;18.848;2023-03-25T02:11:39;97614.52;;;11.98;68.56
62436;BME280;48480;50.252;18.848;2023-03-25T02:14:32;97609.48;;;11.91;68.61
62436;BME280;48480;50.252;18.848;2023-03-25T02:20:09;97616.55;;;11.86;68.81
62436;BME280;48480;50.252;18.848;2023-03-25T02:25:52;97618.80;;;11.81;68.73
62436;BME280;48480;50.252;18.848;2023-03-25T02:28:47;97626.05;;;11.77;68.62
62436;BME280;48480;50.252;18.848;2023-03-25T02:34:32;97628.76;;;11.75;69.16
62436;BME280;48480;50.252;18.848;2023-03-25T02:37:42;97631.46;;;11.73;69.41
62436;BME280;48480;50.252;18.848;2023-03-25T02:40:56;97636.48;;;11.70;69.41
62436;BME280;48480;50.252;18.848;2023-03-25T02:43:23;97632.71;;;11.67;69.29
62436;BME280;48480;50.252;18.848;2023-03-25T02:45:54;97626.70;;;11.66;69.24
62436;BME280;48480;50.252;18.848;2023-03-25T02:48:47;97623.64;;;11.67;69.16
62436;BME280;48480;50.252;18.848;2023-03-25T02:51:21;97628.92;;;11.66;69.09
62436;BME280;48480;50.252;18.848;2023-03-25T02:53:51;97632.41;;;11.65;69.17
62436;BME280;48480;50.252;18.848;2023-03-25T02:56:19;97632.02;;;11.64;68.89
62436;BME280;48480;50.252;18.848;2023-03-25T02:58:48;97632.55;;;11.64;68.96
62436;BME280;48480;50.252;18.848;2023-03-25T03:01:15;97638.75;;;11.64;68.84
62436;BME280;48480;50.252;18.848;2023-03-25T03:03:41;97646.00;;;11.63;69.03
62436;BME280;48480;50.252;18.848;2023-03-25T03:06:07;97651.86;;;11.60;69.04
62436;BME280;48480;50.252;18.848;2023-03-25T03:08:45;97655.35;;;11.59;68.97
62436;BME280;48480;50.252;18.848;2023-03-25T03:20:17;97659.99;;;11.55;68.10
62436;BME280;48480;50.252;18.848;2023-03-25T03:22:58;97664.77;;;11.56;68.38
62436;BME280;48480;50.252;18.848;2023-03-25T03:25:50;97667.23;;;11.56;68.24
62436;BME280;48480;50.252;18.848;2023-03-25T03:28:31;97670.20;;;11.55;68.42
62436;BME280;48480;50.252;18.848;2023-03-25T03:31:05;97673.80;;;11.55;68.25
62436;BME280;48480;50.252;18.848;2023-03-25T03:33:38;97671.33;;;11.54;68.32
62436;BME280;48480;50.252;18.848;2023-03-25T03:36:16;97669.41;;;11.54;68.29
62436;BME280;48480;50.252;18.848;2023-03-25T03:39:02;97670.98;;;11.53;68.16
62436;BME280;48480;50.252;18.848;2023-03-25T03:41:33;97667.35;;;11.52;68.41
62436;BME280;48480;50.252;18.848;2023-03-25T03:44:02;97662.30;;;11.53;68.28
62436;BME280;48480;50.252;18.848;2023-03-25T03:46:35;97664.02;;;11.51;68.18
62436;BME280;48480;50.252;18.848;2023-03-25T03:49:08;97664.54;;;11.50;68.52
62436;BME280;48480;50.252;18.848;2023-03-25T03:51:41;97662.52;;;11.47;68.78
62436;BME280;48480;50.252;18.848;2023-03-25T03:54:16;97662.68;;;11.45;69.12
62436;BME280;48480;50.252;18.848;2023-03-25T03:57:05;97660.63;;;11.43;69.26
62436;BME280;48480;50.252;18.848;2023-03-25T04:00:03;97658.93;;;11.39;69.01
62436;BME280;48480;50.252;18.848;2023-03-25T04:02:32;97661.05;;;11.38;68.95
62436;BME280;48480;50.252;18.848;2023-03-25T04:05:03;97657.89;;;11.38;68.98
62436;BME280;48480;50.252;18.848;2023-03-25T04:07:38;97664.92;;;11.37;68.77
62436;BME280;48480;50.252;18.848;2023-03-25T04:10:22;97663.83;;;11.37;68.76
62436;BME280;48480;50.252;18.848;2023-03-25T04:12:54;97669.00;;;11.35;68.84
62436;BME280;48480;50.252;18.848;2023-03-25T04:15:22;97668.27;;;11.34;69.03
62436;BME280;48480;50.252;18.848;2023-03-25T04:17:47;97669.22;;;11.32;68.97
62436;BME280;48480;50.252;18.848;2023-03-25T04:20:17;97667.45;;;11.28;69.04
62436;BME280;48480;50.252;18.848;2023-03-25T04:22:48;97671.69;;;11.26;68.82
62436;BME280;48480;50.252;18.848;2023-03-25T04:25:17;97673.41;;;11.25;68.91
62436;BME280;48480;50.252;18.848;2023-03-25T04:27:42;97668.11;;;11.23;68.94
62436;BME280;48480;50.252;18.848;2023-03-25T04:30:14;97671.73;;;11.21;68.96
62436;BME280;48480;50.252;18.848;2023-03-25T04:32:42;97674.56;;;11.18;68.89
62436;BME280;48480;50.252;18.848;2023-03-25T04:35:15;97679.77;;;11.15;68.97
62436;BME280;48480;50.252;18.848;2023-03-25T04:37:41;97681.14;;;11.12;68.92
62436;BME280;48480;50.252;18.848;2023-03-25T04:40:13;97685.25;;;11.08;68.95
62436;BME280;48480;50.252;18.848;2023-03-25T04:42:41;97689.61;;;11.05;69.07
62436;BME280;48480;50.252;18.848;2023-03-25T04:45:07;97688.16;;;11.04;68.95
62436;BME280;48480;50.252;18.848;2023-03-25T04:47:38;97690.02;;;11.01;69.09
62436;BME280;48480;50.252;18.848;2023-03-25T04:50:17;97692.77;;;10.98;69.28
62436;BME280;48480;50.252;18.848;2023-03-25T04:52:43;97690.02;;;10.94;69.36
62436;BME280;48480;50.252;18.848;2023-03-25T04:55:11;97685.70;;;10.90;69.27
62436;BME280;48480;50.252;18.848;2023-03-25T04:57:36;97686.61;;;10.88;69.47
62436;BME280;48480;50.252;18.848;2023-03-25T05:00:03;97693.36;;;10.86;69.64
62436;BME280;48480;50.252;18.848;2023-03-25T05:02:30;97692.47;;;10.84;69.47
62436;BME280;48480;50.252;18.848;2023-03-25T05:04:56;97698.27;;;10.83;69.39
62436;BME280;48480;50.252;18.848;2023-03-25T05:07:26;97700.41;;;10.80;69.18
62436;BME280;48480;50.252;18.848;2023-03-25T05:09:54;97702.48;;;10.78;69.25
62436;BME280;48480;50.252;18.848;2023-03-25T05:12:21;97703.16;;;10.76;69.28
62436;BME280;48480;50.252;18.848;2023-03-25T05:14:47;97702.55;;;10.71;69.45
62436;BME280;48480;50.252;18.848;2023-03-25T05:17:12;97707.77;;;10.70;69.72
62436;BME280;48480;50.252;18.848;2023-03-25T05:19:37;97706.10;;;10.69;69.99
62436;BME280;48480;50.252;18.848;2023-03-25T05:22:03;97700.86;;;10.68;69.77
62436;BME280;48480;50.252;18.848;2023-03-25T05:24:28;97701.29;;;10.67;70.13
62436;BME280;48480;50.252;18.848;2023-03-25T05:26:54;97708.80;;;10.67;69.96
62436;BME280;48480;50.252;18.848;2023-03-25T05:29:20;97711.98;;;10.68;69.80
62436;BME280;48480;50.252;18.848;2023-03-25T05:31:45;97708.98;;;10.70;69.71
62436;BME280;48480;50.252;18.848;2023-03-25T05:34:13;97710.30;;;10.74;69.71
62436;BME280;48480;50.252;18.848;2023-03-25T05:36:41;97717.45;;;10.76;69.81
62436;BME280;48480;50.252;18.848;2023-03-25T05:39:06;97720.14;;;10.79;69.82
62436;BME280;48480;50.252;18.848;2023-03-25T05:41:32;97722.21;;;10.81;69.86
62436;BME280;48480;50.252;18.848;2023-03-25T05:44:07;97719.05;;;10.83;69.97
62436;BME280;48480;50.252;18.848;2023-03-25T05:46:33;97718.84;;;10.86;70.01
62436;BME280;48480;50.252;18.848;2023-03-25T05:48:58;97717.36;;;10.88;69.92
62436;BME280;48480;50.252;18.848;2023-03-25T05:51:29;97720.07;;;10.91;69.84
62436;BME280;48480;50.252;18.848;2023-03-25T05:53:58;97715.96;;;10.94;69.58
62436;BME280;48480;50.252;18.848;2023-03-25T05:56:23;97715.89;;;10.97;69.64
62436;BME280;48480;50.252;18.848;2023-03-25T05:58:50;97718.79;;;11.00;69.65
62436;BME280;48480;50.252;18.848;2023-03-25T06:01:18;97715.56;;;11.02;69.83
62436;BME280;48480;50.252;18.848;2023-03-25T06:03:44;97711.71;;;11.06;69.82
62436;BME280;48480;50.252;18.848;2023-03-25T06:06:13;97707.99;;;11.07;69.72
62436;BME280;48480;50.252;18.848;2023-03-25T06:08:47;97714.63;;;11.21;69.43
62436;BME280;48480;50.252;18.848;2023-03-25T06:11:15;97714.36;;;11.30;69.27
62436;BME280;48480;50.252;18.848;2023-03-25T06:13:41;97720.39;;;11.40;69.00
62436;BME280;48480;50.252;18.848;2023-03-25T06:16:16;97725.34;;;11.49;68.84
62436;BME280;48480;50.252;18.848;2023-03-25T06:18:46;97727.55;;;11.56;68.79
62436;BME280;48480;50.252;18.848;2023-03-25T06:21:18;97729.59;;;11.63;68.66
62436;BME280;48480;50.252;18.848;2023-03-25T06:23:45;97731.34;;;11.67;68.40
62436;BME280;48480;50.252;18.848;2023-03-25T06:26:12;97728.37;;;11.71;68.40
62436;BME280;48480;50.252;18.848;2023-03-25T06:28:38;97730.15;;;11.74;68.36
62436;BME280;48480;50.252;18.848;2023-03-25T06:31:03;97732.95;;;11.79;68.14
62436;BME280;48480;50.252;18.848;2023-03-25T06:33:33;97734.58;;;11.84;68.00
62436;BME280;48480;50.252;18.848;2023-03-25T06:35:58;97736.05;;;11.92;68.34
62436;BME280;48480;50.252;18.848;2023-03-25T06:38:23;97743.55;;;11.99;68.31
62436;BME280;48480;50.252;18.848;2023-03-25T06:40:50;97743.20;;;12.04;68.15
62436;BME280;48480;50.252;18.848;2023-03-25T06:43:15;97742.46;;;12.10;68.20
62436;BME280;48480;50.252;18.848;2023-03-25T06:45:41;97741.90;;;12.18;67.81
62436;BME280;48480;50.252;18.848;2023-03-25T06:48:07;97741.92;;;12.24;67.62
62436;BME280;48480;50.252;18.848;2023-03-25T06:50:33;97738.92;;;12.33;67.60
62436;BME280;48480;50.252;18.848;2023-03-25T06:52:58;97734.11;;;12.46;67.29
62436;BME280;48480;50.252;18.848;2023-03-25T06:55:23;97733.48;;;12.58;66.84
62436;BME280;48480;50.252;18.848;2023-03-25T06:57:53;97730.94;;;12.63;66.59
62436;BME280;48480;50.252;18.848;2023-03-25T07:00:20;97730.94;;;12.70;66.51
62436;BME280;48480;50.252;18.848;2023-03-25T07:02:48;97735.39;;;12.78;66.18
62436;BME280;48480;50.252;18.848;2023-03-25T07:05:13;97727.95;;;12.86;65.70
62436;BME280;48480;50.252;18.848;2023-03-25T07:07:39;97729.64;;;12.99;65.73
62436;BME280;48480;50.252;18.848;2023-03-25T07:10:05;97732.35;;;13.13;65.37
62436;BME280;48480;50.252;18.848;2023-03-25T07:12:33;97734.91;;;13.27;65.27
62436;BME280;48480;50.252;18.848;2023-03-25T07:14:58;97732.98;;;13.47;64.76
62436;BME280;48480;50.252;18.848;2023-03-25T07:17:23;97725.56;;;13.71;64.21
62436;BME280;48480;50.252;18.848;2023-03-25T07:19:49;97729.57;;;13.97;63.63
62436;BME280;48480;50.252;18.848;2023-03-25T07:22:15;97722.55;;;14.25;63.28
62436;BME280;48480;50.252;18.848;2023-03-25T07:24:41;97715.04;;;14.58;62.88
62436;BME280;48480;50.252;18.848;2023-03-25T07:27:10;97719.55;;;14.93;61.72
62436;BME280;48480;50.252;18.848;2023-03-25T07:29:35;97718.75;;;15.20;59.92
62436;BME280;48480;50.252;18.848;2023-03-25T07:32:01;97717.23;;;15.40;59.03
62436;BME280;48480;50.252;18.848;2023-03-25T07:34:26;97706.04;;;15.51;58.06
62436;BME280;48480;50.252;18.848;2023-03-25T07:36:51;97701.33;;;15.49;57.30
62436;BME280;48480;50.252;18.848;2023-03-25T07:39:17;97697.80;;;15.40;57.47
62436;BME280;48480;50.252;18.848;2023-03-25T07:41:43;97698.44;;;15.31;56.99
62436;BME280;48480;50.252;18.848;2023-03-25T07:44:08;97692.48;;;15.19;56.41
62436;BME280;48480;50.252;18.848;2023-03-25T07:46:34;97691.28;;;15.11;56.19
62436;BME280;48480;50.252;18.848;2023-03-25T07:48:59;97693.61;;;15.12;56.09
62436;BME280;48480;50.252;18.848;2023-03-25T07:51:25;97697.54;;;15.11;56.29
62436;BME280;48480;50.252;18.848;2023-03-25T07:53:54;97688.48;;;14.98;55.94
62436;BME280;48480;50.252;18.848;2023-03-25T07:56:19;97693.46;;;14.91;55.62
62436;BME280;48480;50.252;18.848;2023-03-25T07:58:45;97695.80;;;14.88;55.87
62436;BME280;48480;50.252;18.848;2023-03-25T08:01:10;97697.27;;;14.99;55.81
62436;BME280;48480;50.252;18.848;2023-03-25T08:03:36;97698.12;;;15.13;55.97
62436;BME280;48480;50.252;18.848;2023-03-25T08:06:04;97694.97;;;15.42;55.75
62436;BME280;48480;50.252;18.848;2023-03-25T08:08:30;97697.86;;;15.94;54.96
62436;BME280;48480;50.252;18.848;2023-03-25T08:10:55;97698.57;;;16.47;53.87
62436;BME280;48480;50.252;18.848;2023-03-25T08:13:21;97697.66;;;16.93;52.38
62436;BME280;48480;50.252;18.848;2023-03-25T08:15:47;97700.67;;;17.38;51.47
62436;BME280;48480;50.252;18.848;2023-03-25T08:18:13;97699.27;;;17.83;50.07
62436;BME280;48480;50.252;18.848;2023-03-25T08:20:39;97690.02;;;18.20;48.65
62436;BME280;48480;50.252;18.848;2023-03-25T08:23:05;97682.01;;;18.51;47.63
62436;BME280;48480;50.252;18.848;2023-03-25T08:25:35;97684.30;;;18.84;46.52
62436;BME280;48480;50.252;18.848;2023-03-25T08:28:01;97684.61;;;19.00;45.86
62436;BME280;48480;50.252;18.848;2023-03-25T08:30:26;97681.42;;;19.02;45.00
62436;BME280;48480;50.252;18.848;2023-03-25T08:32:52;97680.41;;;18.90;45.19
62436;BME280;48480;50.252;18.848;2023-03-25T08:35:22;97675.13;;;18.82;45.47
62436;BME280;48480;50.252;18.848;2023-03-25T08:37:50;97671.63;;;18.70;45.47
62436;BME280;48480;50.252;18.848;2023-03-25T08:40:16;97676.34;;;18.53;45.44
62436;BME280;48480;50.252;18.848;2023-03-25T08:42:42;97672.38;;;18.36;44.39
62436;BME280;48480;50.252;18.848;2023-03-25T08:45:08;97668.77;;;18.10;44.46
62436;BME280;48480;50.252;18.848;2023-03-25T08:47:34;97666.93;;;17.78;45.43
62436;BME280;48480;50.252;18.848;2023-03-25T08:49:59;97662.58;;;17.56;45.97
62436;BME280;48480;50.252;18.848;2023-03-25T08:52:24;97665.90;;;17.54;46.42
62436;BME280;48480;50.252;18.848;2023-03-25T08:54:50;97669.14;;;17.50;46.36
62436;BME280;48480;50.252;18.848;2023-03-25T08:57:16;97674.38;;;17.43;45.94
62436;BME280;48480;50.252;18.848;2023-03-25T08:59:41;97672.98;;;17.27;45.77
62436;BME280;48480;50.252;18.848;2023-03-25T09:02:10;97669.70;;;17.12;46.45
62436;BME280;48480;50.252;18.848;2023-03-25T09:04:36;97671.42;;;17.14;47.26
62436;BME280;48480;50.252;18.848;2023-03-25T09:07:06;97673.16;;;17.33;46.89
62436;BME280;48480;50.252;18.848;2023-03-25T09:09:40;97675.33;;;17.44;45.94
62436;BME280;48480;50.252;18.848;2023-03-25T09:12:07;97674.54;;;17.44;46.09
62436;BME280;48480;50.252;18.848;2023-03-25T09:14:32;97667.03;;;17.47;45.69
62436;BME280;48480;50.252;18.848;2023-03-25T09:16:58;97661.13;;;17.62;45.71
62436;BME280;48480;50.252;18.848;2023-03-25T09:19:23;97660.98;;;17.82;45.29
62436;BME280;48480;50.252;18.848;2023-03-25T09:21:50;97659.59;;;18.06;44.69
62436;BME280;48480;50.252;18.848;2023-03-25T09:24:15;97656.63;;;18.34;44.55
62436;BME280;48480;50.252;18.848;2023-03-25T09:26:41;97658.66;;;18.64;44.17
62436;BME280;48480;50.252;18.848;2023-03-25T09:29:07;97653.63;;;18.82;43.65
62436;BME280;48480;50.252;18.848;2023-03-25T09:31:32;97647.43;;;18.82;43.28
62436;BME280;48480;50.252;18.848;2023-03-25T09:33:58;97644.08;;;18.92;43.02
62436;BME280;48480;50.252;18.848;2023-03-25T09:36:24;97645.95;;;18.94;43.05
62436;BME280;48480;50.252;18.848;2023-03-25T09:38:49;97642.29;;;18.72;43.22
62436;BME280;48480;50.252;18.848;2023-03-25T09:44:21;97648.46;;;17.90;45.54
62436;BME280;48480;50.252;18.848;2023-03-25T09:46:50;97646.19;;;17.45;48.67
62436;BME280;48480;50.252;18.848;2023-03-25T09:49:22;97650.85;;;17.05;50.81
62436;BME280;48480;50.252;18.848;2023-03-25T09:51:51;97645.28;;;16.55;51.97
62436;BME280;48480;50.252;18.848;2023-03-25T09:54:36;97645.64;;;16.09;53.65
62436;BME280;48480;50.252;18.848;2023-03-25T09:57:07;97638.20;;;15.72;55.32
62436;BME280;48480;50.252;18.848;2023-03-25T09:59:44;97632.29;;;15.50;56.01
62436;BME280;48480;50.252;18.848;2023-03-25T10:02:39;97626.40;;;15.30;56.44
62436;BME280;48480;50.252;18.848;2023-03-25T10:10:51;97643.73;;;14.73;58.69
62436;BME280;48480;50.252;18.848;2023-03-25T10:13:26;97659.88;;;14.34;59.25
62436;BME280;48480;50.252;18.848;2023-03-25T10:16:18;97655.95;;;13.99;59.94
62436;BME280;48480;50.252;18.848;2023-03-25T10:18:57;97654.44;;;13.64;60.43
62436;BME280;48480;50.252;18.848;2023-03-25T10:21:37;97659.41;;;13.40;61.36
62436;BME280;48480;50.252;18.848;2023-03-25T10:24:16;97652.77;;;13.53;62.79
62436;BME280;48480;50.252;18.848;2023-03-25T10:29:20;97631.36;;;14.34;62.53
62436;BME280;48480;50.252;18.848;2023-03-25T10:31:52;97633.08;;;14.72;62.19
62436;BME280;48480;50.252;18.848;2023-03-25T10:34:23;97634.50;;;14.90;60.06
62436;BME280;48480;50.252;18.848;2023-03-25T10:36:54;97628.94;;;14.95;58.89
62436;BME280;48480;50.252;18.848;2023-03-25T10:39:23;97624.53;;;14.99;58.03
62436;BME280;48480;50.252;18.848;2023-03-25T10:41:56;97622.80;;;15.20;58.29
62436;BME280;48480;50.252;18.848;2023-03-25T10:44:25;97621.57;;;15.52;56.64
62436;BME280;48480;50.252;18.848;2023-03-25T10:47:00;97615.09;;;15.79;55.00
62436;BME280;48480;50.252;18.848;2023-03-25T10:49:29;97613.91;;;15.82;53.88
62436;BME280;48480;50.252;18.848;2023-03-25T10:51:55;97610.02;;;15.80;52.71
62436;BME280;48480;50.252;18.848;2023-03-25T10:54:27;97608.25;;;15.88;53.16
62436;BME280;48480;50.252;18.848;2023-03-25T10:56:57;97604.55;;;15.81;52.35
62436;BME280;48480;50.252;18.848;2023-03-25T10:59:36;97596.08;;;15.57;52.24
62436;BME280;48480;50.252;18.848;2023-03-25T11:02:31;97595.70;;;15.32;51.73
62436;BME280;48480;50.252;18.848;2023-03-25T11:05:03;97593.81;;;15.42;52.25
62436;BME280;48480;50.252;18.848;2023-03-25T11:07:39;97589.84;;;15.72;52.16
62436;BME280;48480;50.252;18.848;2023-03-25T11:12:39;97583.48;;;16.45;50.80
62436;BME280;48480;50.252;18.848;2023-03-25T11:15:12;97582.58;;;16.57;50.40
62436;BME280;48480;50.252;18.848;2023-03-25T11:17:38;97581.01;;;16.68;49.31
62436;BME280;48480;50.252;18.848;2023-03-25T11:20:06;97576.30;;;16.80;48.94
62436;BME280;48480;50.252;18.848;2023-03-25T11:22:36;97572.52;;;16.68;48.83
62436;BME280;48480;50.252;18.848;2023-03-25T11:25:15;97575.75;;;16.55;48.93
62436;BME280;48480;50.252;18.848;2023-03-25T11:27:50;97574.96;;;16.53;48.45
62436;BME280;48480;50.252;18.848;2023-03-25T11:30:19;97574.71;;;16.50;48.36
62436;BME280;48480;50.252;18.848;2023-03-25T11:32:58;97572.20;;;16.35;48.19
62436;BME280;48480;50.252;18.848;2023-03-25T11:35:28;97573.43;;;16.16;48.62
62436;BME280;48480;50.252;18.848;2023-03-25T11:37:58;97567.52;;;16.19;49.61
62436;BME280;48480;50.252;18.848;2023-03-25T11:40:24;97566.46;;;16.34;49.44
62436;BME280;48480;50.252;18.848;2023-03-25T11:42:53;97563.61;;;16.45;48.86
62436;BME280;48480;50.252;18.848;2023-03-25T11:45:26;97562.30;;;16.57;49.28
62436;BME280;48480;50.252;18.848;2023-03-25T11:48:01;97567.14;;;16.73;48.34
62436;BME280;48480;50.252;18.848;2023-03-25T11:50:36;97565.23;;;16.89;46.48
62436;BME280;48480;50.252;18.848;2023-03-25T11:53:03;97562.67;;;17.01;44.84
62436;BME280;48480;50.252;18.848;2023-03-25T11:55:34;97567.52;;;17.12;44.38
62436;BME280;48480;50.252;18.848;2023-03-25T11:58:02;97565.79;;;17.26;43.05
62436;BME280;48480;50.252;18.848;2023-03-25T12:00:35;97566.96;;;17.25;43.22
62436;BME280;48480;50.252;18.848;2023-03-25T12:05:37;97577.35;;;17.12;44.22
62436;BME280;48480;50.252;18.848;2023-03-25T12:08:12;97594.62;;;17.00;44.33
62436;BME280;48480;50.252;18.848;2023-03-25T12:16:29;97611.83;;;16.07;47.52
62436;BME280;48480;50.252;18.848;2023-03-25T12:19:07;97614.77;;;15.57;48.44
62436;BME280;48480;50.252;18.848;2023-03-25T12:24:35;97601.57;;;15.07;50.95
62436;BME280;48480;50.252;18.848;2023-03-25T12:27:27;97592.42;;;14.99;51.30
62436;BME280;48480;50.252;18.848;2023-03-25T12:38:52;97585.83;;;14.79;54.28
62436;BME280;48480;50.252;18.848;2023-03-25T12:44:01;97572.45;;;14.61;54.52
62436;BME280;48480;50.252;18.848;2023-03-25T12:52:10;97567.09;;;14.91;53.42
62436;BME280;48480;50.252;18.848;2023-03-25T12:57:23;97565.67;;;15.06;52.58
62436;BME280;48480;50.252;18.848;2023-03-25T13:00:23;97569.14;;;15.19;51.76
62436;BME280;48480;50.252;18.848;2023-03-25T13:03:16;97563.56;;;15.29;51.06
62436;BME280;48480;50.252;18.848;2023-03-25T13:05:58;97559.36;;;15.40;50.30
62436;BME280;48480;50.252;18.848;2023-03-25T13:11:30;97555.10;;;15.52;50.01
62436;BME280;48480;50.252;18.848;2023-03-25T13:14:00;97553.77;;;15.58;49.18
62436;BME280;48480;50.252;18.848;2023-03-25T13:16:29;97544.92;;;15.62;48.93
62436;BME280;48480;50.252;18.848;2023-03-25T13:19:10;97545.96;;;15.58;48.73
62436;BME280;48480;50.252;18.848;2023-03-25T13:21:44;97548.11;;;15.56;49.80
62436;BME280;48480;50.252;18.848;2023-03-25T13:24:26;97536.45;;;15.62;50.17
62436;BME280;48480;50.252;18.848;2023-03-25T13:26:57;97534.20;;;15.74;49.05
62436;BME280;48480;50.252;18.848;2023-03-25T13:29:38;97530.65;;;15.75;48.39
62436;BME280;48480;50.252;18.848;2023-03-25T13:32:19;97530.54;;;15.73;48.64
62436;BME280;48480;50.252;18.848;2023-03-25T13:34:53;97530.13;;;15.72;47.70
62436;BME280;48480;50.252;18.848;2023-03-25T13:37:24;97533.25;;;15.67;45.96
62436;BME280;48480;50.252;18.848;2023-03-25T13:40:06;97533.44;;;15.55;45.14
62436;BME280;48480;50.252;18.848;2023-03-25T13:42:47;97533.56;;;15.39;44.38
62436;BME280;48480;50.252;18.848;2023-03-25T13:45:22;97532.39;;;15.24;44.60
62436;BME280;48480;50.252;18.848;2023-03-25T13:50:30;97531.08;;;15.17;44.80
62436;BME280;48480;50.252;18.848;2023-03-25T13:53:16;97528.16;;;15.18;44.56
62436;BME280;48480;50.252;18.848;2023-03-25T14:01:30;97533.23;;;15.16;43.73
62436;BME280;48480;50.252;18.848;2023-03-25T14:04:57;97530.13;;;15.15;44.17
62436;BME280;48480;50.252;18.848;2023-03-25T14:07:49;97531.23;;;15.10;43.44
62436;BME280;48480;50.252;18.848;2023-03-25T14:10:25;97532.61;;;14.97;42.89
62436;BME280;48480;50.252;18.848;2023-03-25T14:12:55;97541.02;;;14.86;43.00
62436;BME280;48480;50.252;18.848;2023-03-25T14:15:39;97539.27;;;14.69;43.67
62436;BME280;48480;50.252;18.848;2023-03-25T14:18:15;97539.24;;;14.53;44.76
62436;BME280;48480;50.252;18.848;2023-03-25T14:20:44;97549.25;;;14.43;45.21
62436;BME280;48480;50.252;18.848;2023-03-25T14:23:19;97552.67;;;14.29;44.98
62436;BME280;48480;50.252;18.848;2023-03-25T14:25:57;97555.92;;;14.15;45.55